Toledo, OH

6:24 PM EDT on September 21, 2014 (GMT -0400)
University of Toledo | Change Station
CLOSE
Current Station
Personal Weather Station
Location: Toledo, OH
Elevation: 597 ft
Nearby Weather Stations
Active Advisory: Coastal Hazard Statement

Elev 597 ft 41.66 °N, 83.62 °W | Updated 7 minutes ago

Overcast
Overcast
62.5 °F
Feels Like 62.5 °F
N
2.9
Wind Variable Wind from South
Gusts 5.1 mph

Today
High -- | Low -- °F
--% Chance of Precip.
Yesterday
High -- | Low -- °F
Precip. -- in
7:20 AM 7:33 PM
Waning Crescent, 5% visible
Pressure 29.80 in
Visibility 10.0 miles
Clouds Scattered Clouds 4100 ft
Overcast 5000 ft
Dew Point 55 °F
Humidity 75%
Rainfall -999.00 in
Snow Depth Not available.
UV 0 out of 12
Pollen 1.10 out of 12
Air Quality Not available.
Flu Activity Not available.
METAR KTDZ 212153Z AUTO 29019G28KT 10SM SCT041 OVC050 18/09 A2980 RMK AO2 PK WND 30029/2108 SLP089 T01830094 TSNO

More Conditions Fewer Conditions

Pressure 29.80 in
Visibility 10.0 miles
Clouds Scattered Clouds 4100 ft
Overcast 5000 ft
Dew Point 55 °F
Humidity 75%
Rainfall -999.00 in
Snow Depth Not available.
UV 0 out of 12
Pollen 1.10 out of 12
Air Quality Not available.
Flu Activity Not available.
METAR KTDZ 212153Z AUTO 29019G28KT 10SM SCT041 OVC050 18/09 A2980 RMK AO2 PK WND 30029/2108 SLP089 T01830094 TSNO

More Conditions Fewer Conditions

10-Day Weather Forecast

Almanac

Astronomy

Sep. 21, 2014 Rise Set
Actual Time 7:20 AM EDT 7:33 PM EDT
Civil Twilight 6:52 AM EDT 8:00 PM EDT
Nautical Twilight 6:20 AM EDT 8:33 PM EDT
Astronomical Twilight 5:47 AM EDT 9:06 PM EDT
Moon 4:51 AM EDT 6:09 PM EDT
Length of Visible Light 13h 07m
Length of Day
12h 12m
Tomorrow will be 2m 46s shorter.
Waning Crescent, 5% of the Moon is Illuminated
Today
Waning Crescent
Sep 24
New
Oct 1
First Quarter
Oct 8
Full
Oct 15
Last Quarter

Today's Extremes

State Highs State Lows

Community

WunderPhotos

Upload Photos

1,755,278 photos uploaded!

WunderBlogs® & News

Nearby

Snow Depth

Station Depth Elevation
No new snow has been reported.

Earthquake Activity

City Distance Mag. Time & Date
No recent earthquake activity has been reported nearby.
Minimum magnitude displayed is 2.5.

Coastal Water Temperatures

Place Temperature
Marblehead, OH 66.0 °F

Nearby Weather Stations